createdAt,value
2019-02-14T00:00:27.657Z,90.52
2019-02-14T00:01:26.209Z,90.05
2019-02-14T00:02:24.953Z,89.95
2019-02-14T00:03:23.481Z,90.05
2019-02-14T00:04:22.038Z,89.95
2019-02-14T00:05:20.870Z,90.14
2019-02-14T00:06:19.647Z,90.05
2019-02-14T00:07:18.175Z,89.95
2019-02-14T00:08:16.707Z,90.24
2019-02-14T00:09:15.277Z,90.62
2019-02-14T00:10:13.831Z,90.33
2019-02-14T00:11:12.387Z,90.14
2019-02-14T00:12:11.074Z,90.24
2019-02-14T00:13:09.787Z,90.62
2019-02-14T00:14:08.335Z,91.19
2019-02-14T00:15:06.977Z,91.19
2019-02-14T00:16:05.634Z,91.85
2019-02-14T00:17:04.137Z,91.28
2019-02-14T00:18:02.693Z,90.71
2019-02-14T00:19:01.498Z,90.81
2019-02-14T00:20:00.065Z,90.28
2019-02-14T00:20:58.598Z,90.05
2019-02-14T00:21:57.282Z,89.86
2019-02-14T00:22:55.789Z,90.24
2019-02-14T00:23:54.342Z,90.05
2019-02-14T00:24:52.905Z,89.95
2019-02-14T00:25:51.594Z,89.95
2019-02-14T00:26:50.182Z,89.95
2019-02-14T00:27:48.819Z,89.67
2019-02-14T00:28:47.482Z,89.48
2019-02-14T00:29:46.053Z,90.05
2019-02-14T00:30:44.593Z,89.48
2019-02-14T00:31:43.110Z,89.95
2019-02-14T00:32:41.673Z,90.14
2019-02-14T00:33:40.248Z,89.95
2019-02-14T00:34:38.986Z,90.9
2019-02-14T00:35:37.590Z,90.33
2019-02-14T00:36:36.127Z,90.52
2019-02-14T00:37:34.709Z,90.43
2019-02-14T00:38:33.476Z,91.09
2019-02-14T00:39:31.982Z,90.71
2019-02-14T00:40:30.516Z,90.71
2019-02-14T00:41:29.141Z,90.71
2019-02-14T00:42:27.754Z,91.09
2019-02-14T00:43:26.291Z,91
2019-02-14T00:44:24.824Z,91.09
2019-02-14T00:45:23.366Z,91
2019-02-14T00:46:21.901Z,90.9
2019-02-14T00:47:20.456Z,90.9
2019-02-14T00:48:19.268Z,91.19
2019-02-14T00:49:17.817Z,91.19
2019-02-14T00:50:16.373Z,90.9
2019-02-14T00:51:15.144Z,91.66
2019-02-14T00:52:13.752Z,90.81
2019-02-14T00:53:12.306Z,90.9
2019-02-14T00:54:10.838Z,91.38
2019-02-14T00:55:09.431Z,91.09
2019-02-14T00:56:08.084Z,91.47
2019-02-14T00:57:06.715Z,90.9
2019-02-14T00:58:05.389Z,91.33
2019-02-14T00:59:03.961Z,91.33
2019-02-14T01:00:02.517Z,91.8
2019-02-14T01:01:01.071Z,92.28
2019-02-14T01:01:59.647Z,92.94
2019-02-14T01:02:58.212Z,92.57
2019-02-14T01:03:56.861Z,93.13
2019-02-14T01:04:55.425Z,93.23
2019-02-14T01:05:54.067Z,93.32
2019-02-14T01:06:52.672Z,93.13
2019-02-14T01:07:51.236Z,92.76
2019-02-14T01:08:49.747Z,92.47
2019-02-14T01:09:48.308Z,92.38
2019-02-14T01:10:47.059Z,92.66
2019-02-14T01:11:45.589Z,92.47
2019-02-14T01:12:44.144Z,92.85
2019-02-14T01:13:42.768Z,91.8
2019-02-14T01:14:41.475Z,92.18
2019-02-14T01:15:40.094Z,92.28
2019-02-14T01:16:38.657Z,91.61
2019-02-14T01:17:37.379Z,91.42
2019-02-14T01:18:35.913Z,91.33
2019-02-14T01:19:34.487Z,91.33
2019-02-14T01:20:33.185Z,91.05
2019-02-14T01:21:31.737Z,90.86
2019-02-14T01:22:30.287Z,90.57
2019-02-14T01:23:28.872Z,90.38
2019-02-14T01:24:27.607Z,90.57
2019-02-14T01:25:26.165Z,91.05
2019-02-14T01:26:24.785Z,91.05
2019-02-14T01:27:23.428Z,91.33
2019-02-14T01:28:21.956Z,91.8
2019-02-14T01:29:20.514Z,91.99
2019-02-14T01:30:19.057Z,91.99
2019-02-14T01:31:17.615Z,91.99
2019-02-14T01:32:16.156Z,92.47
2019-02-14T01:33:14.699Z,92.18
2019-02-14T01:34:13.278Z,92.28
2019-02-14T01:35:11.862Z,91.9
2019-02-14T01:36:10.467Z,91.33
2019-02-14T01:37:09.014Z,91.33
2019-02-14T01:38:07.566Z,91.24
2019-02-14T01:39:06.140Z,91.8
2019-02-14T01:40:04.965Z,91.52
2019-02-14T01:41:03.688Z,92.28
2019-02-14T01:42:02.234Z,92.09
2019-02-14T01:43:00.780Z,92.47
2019-02-14T01:43:59.329Z,92.28
2019-02-14T01:44:57.891Z,92.18
2019-02-14T01:45:56.434Z,92.47
2019-02-14T01:46:55.266Z,91.71
2019-02-14T01:47:53.898Z,91.14
2019-02-14T01:48:52.441Z,91.61
2019-02-14T01:49:51.193Z,91.52
2019-02-14T01:50:49.792Z,92.38
2019-02-14T01:51:48.430Z,92.18
2019-02-14T01:52:46.929Z,92.28
2019-02-14T01:53:45.478Z,92.57
2019-02-14T01:54:44.012Z,92.28
2019-02-14T01:55:42.541Z,92.09
2019-02-14T01:56:41.097Z,91.8
2019-02-14T01:57:39.662Z,91.14
2019-02-14T01:58:38.245Z,91.33
2019-02-14T01:59:37.027Z,90.86
2019-02-14T02:00:35.677Z,90.38
2019-02-14T02:01:34.267Z,90.19
2019-02-14T02:02:32.981Z,90.38
2019-02-14T02:03:31.577Z,89.91
2019-02-14T02:04:30.099Z,90.48
2019-02-14T02:05:28.621Z,90.48
2019-02-14T02:06:27.190Z,90.86
2019-02-14T02:07:25.722Z,90.38
2019-02-14T02:08:24.251Z,90.48
2019-02-14T02:10:58.201Z,90.67
2019-02-14T02:11:56.754Z,90.76
2019-02-14T02:12:55.598Z,90.86
2019-02-14T02:13:54.199Z,91.24
2019-02-14T02:14:52.873Z,91.42
2019-02-14T02:15:51.566Z,91.42
2019-02-14T02:16:50.189Z,91.52
2019-02-14T02:17:48.713Z,91.33
2019-02-14T02:18:47.267Z,91.24
2019-02-14T02:19:45.833Z,91.61
2019-02-14T02:20:44.348Z,91.33
2019-02-14T02:21:42.955Z,90.67
2019-02-14T02:22:41.508Z,90.57
2019-02-14T02:23:40.065Z,90.67
2019-02-14T02:24:38.632Z,90.19
2019-02-14T02:25:37.355Z,90.57
2019-02-14T02:26:35.904Z,90
2019-02-14T02:27:34.432Z,89.81
2019-02-14T02:28:33.109Z,90
2019-02-14T02:29:31.702Z,90
2019-02-14T02:30:30.254Z,89.62
2019-02-14T02:31:28.977Z,89.62
2019-02-14T02:32:27.641Z,89.53
2019-02-14T02:33:26.282Z,89.91
2019-02-14T02:34:24.883Z,90.62
2019-02-14T02:35:23.426Z,91.28
2019-02-14T02:36:21.991Z,91.57
2019-02-14T02:37:20.628Z,92.42
2019-02-14T02:38:19.429Z,92.52
2019-02-14T02:39:17.969Z,93.18
2019-02-14T02:40:16.515Z,93.56
2019-02-14T02:41:15.195Z,94.04
2019-02-14T02:42:13.750Z,94.23
2019-02-14T02:43:12.348Z,94.23
2019-02-14T02:44:10.875Z,93.94
2019-02-14T02:45:09.499Z,92.99
2019-02-14T02:46:08.024Z,92.42
2019-02-14T02:47:06.611Z,92.42
2019-02-14T02:48:05.367Z,92.09
2019-02-14T02:49:04.005Z,91.42
2019-02-14T02:50:02.592Z,91.52
2019-02-14T02:51:01.604Z,90.86
2019-02-14T02:52:00.125Z,91.05
2019-02-14T02:52:58.916Z,90.57
2019-02-14T02:53:57.614Z,90.57
2019-02-14T02:54:56.130Z,90
2019-02-14T02:55:54.771Z,90.19
2019-02-14T02:56:53.388Z,90.57
2019-02-14T02:57:52.032Z,91.09
2019-02-14T02:58:50.542Z,91.42
2019-02-14T02:59:49.099Z,90.81
2019-02-14T03:00:47.659Z,91.38
2019-02-14T03:01:46.211Z,91.57
2019-02-14T03:02:45.040Z,91.95
2019-02-14T03:03:43.650Z,92.42
2019-02-14T03:04:42.254Z,92.61
2019-02-14T03:05:40.952Z,92.42
2019-02-14T03:06:39.656Z,92.61
2019-02-14T03:07:38.200Z,92.04
2019-02-14T03:08:36.735Z,92.23
2019-02-14T03:09:35.286Z,92.52
2019-02-14T03:10:33.826Z,92.42
2019-02-14T03:11:32.379Z,91.66
2019-02-14T03:12:30.891Z,91.76
2019-02-14T03:13:29.559Z,91.66
2019-02-14T03:14:28.094Z,91.47
2019-02-14T03:15:26.714Z,92.14
2019-02-14T03:16:25.518Z,92.23
2019-02-14T03:17:24.046Z,92.33
2019-02-14T03:18:22.640Z,91.38
2019-02-14T03:19:21.373Z,91.38
2019-02-14T03:20:19.930Z,91.09
2019-02-14T03:21:18.440Z,91.76
2019-02-14T03:22:16.970Z,91.76
2019-02-14T03:23:15.515Z,91.66
2019-02-14T03:24:14.080Z,90.91
2019-02-14T03:25:12.620Z,91.28
2019-02-14T03:26:11.165Z,91.57
2019-02-14T03:27:09.754Z,91.19
2019-02-14T03:28:08.340Z,91.19
2019-02-14T03:29:07.147Z,90.72
2019-02-14T03:30:05.792Z,91.19
2019-02-14T03:31:04.324Z,90.95
2019-02-14T03:32:02.894Z,90.38
2019-02-14T03:33:01.503Z,90.67
2019-02-14T03:34:00.051Z,90.29
2019-02-14T03:34:58.567Z,89.62
2019-02-14T03:35:57.166Z,89.91
2019-02-14T03:36:55.717Z,89.25
2019-02-14T03:37:54.245Z,88.96
2019-02-14T03:38:52.774Z,88.39
2019-02-14T03:39:51.331Z,88.68
2019-02-14T03:40:49.890Z,88.48
2019-02-14T03:41:48.466Z,87.82
2019-02-14T03:42:47.304Z,87.92
